This is the latest recevied weather packets stored in our database for station/object KO6HRZ. If no packets are shown the sender has not sent any weather packets the latest 10 day(s).
| Time | Temp. | Humidity | Pressure | Rain* | Wind** | Luminosity | Snow |
|---|---|---|---|---|---|---|---|
| 1777410985 | 23.89° C | 50% | 1019.2 hPa | 0 mm | - | 834 W/m² | - |
| 1777410381 | 24.44° C | 46% | 1019.4 hPa | 0 mm | - | 831 W/m² | - |
| 1777409781 | 23.33° C | 47% | 1019.4 hPa | 0 mm | - | 839 W/m² | - |
| 1777409178 | 24.44° C | 45% | 1019.6 hPa | 0 mm | - | 838 W/m² | - |
| 1777408576 | 23.89° C | 47% | 1019.3 hPa | 0 mm | - | 868 W/m² | - |
| 1777407971 | 24.44° C | 46% | 1019.6 hPa | 0 mm | - | 850 W/m² | - |
| 1777407370 | 22.78° C | 49% | 1019.7 hPa | 0 mm | - | 853 W/m² | - |
| 1777406766 | 23.33° C | 47% | 1019.7 hPa | 0 mm | - | 453 W/m² | - |
| 1777406161 | 22.78° C | 51% | 1019.7 hPa | 0 mm | - | 842 W/m² | - |
| 1777405559 | 23.89° C | 48% | 1020 hPa | 0 mm | - | 836 W/m² | - |
| 1777404955 | 23.33° C | 49% | 1019.9 hPa | 0 mm | - | 827 W/m² | - |
| 1777404353 | 22.78° C | 50% | 1020.2 hPa | 0 mm | - | 828 W/m² | - |
| 1777403751 | 23.33° C | 51% | 1020.4 hPa | 0 mm | - | 826 W/m² | - |
| 1777403150 | 21.67° C | 55% | 1020.6 hPa | 0 mm | - | 790 W/m² | - |
| 1777402549 | 21.67° C | 52% | 1020.7 hPa | 0 mm | - | 803 W/m² | - |
| 1777401947 | 22.78° C | 54% | 1020.6 hPa | 0 mm | - | 767 W/m² | - |
| 1777401343 | 22.22° C | 54% | 1020.7 hPa | 0 mm | - | 741 W/m² | - |
| 1777400739 | 21.67° C | 58% | 1020.7 hPa | 0 mm | - | 727 W/m² | - |
| 1777400137 | 22.22° C | 56% | 1020.9 hPa | 0 mm | - | 708 W/m² | - |
| 1777399532 | 21.67° C | 57% | 1020.8 hPa | 0 mm | - | 682 W/m² | - |
| 1777398933 | 20.56° C | 59% | 1020.9 hPa | 0 mm | - | 655 W/m² | - |
| 1777398332 | 20.56° C | 61% | 1020.9 hPa | 0 mm | - | 626 W/m² | - |
| 1777397732 | 20.56° C | 60% | 1020.9 hPa | 0 mm | - | 603 W/m² | - |
| 1777397130 | 19.44° C | 62% | 1020.9 hPa | 0 mm | - | 576 W/m² | - |
| 1777396529 | 18.89° C | 65% | 1020.8 hPa | 0 mm | - | 548 W/m² | - |
* Rain latest hour (hover to see other rain measurements)
** Current wind speed in m/s (hover to see current wind gust speed)